Williams Baptist College, Arkansas
Current Conditions -  °F | °C
As of 7:35 PM on Friday 24 Oct 2014 (Local Time) from KARG Reporting Station
Clear Clear  
Wind Chill: 63°   Ceiling: Unl
Heat Index: 63°   Visibility: 9mi
Dew Point: 54°   Wind: 7mph
Humidity: 72%   Direction: 180°S
Pressure: 30.06"   Gusts: NA
Location:  36.1072°N, 90.9128°W
Report Text: KARG 250035Z AUTO 18006KT 9SM CLR 17/12 A3006 RMK AO1
Loading
Personal Weather Stations






























Interactive Weather Map
Tropical Storm Tracking
New forecast layout! Learn more

10-Day Weather Forecast

Advertisements
Track Severe Weather on mobile